createdAt,value
2022-09-09T00:02:19.691Z,22.75
2022-09-09T00:05:22.498Z,22.73
2022-09-09T00:07:50.664Z,22.69
2022-09-09T00:10:19.678Z,22.70
2022-09-09T00:12:46.060Z,22.74
2022-09-09T00:15:14.172Z,22.76
2022-09-09T00:17:40.922Z,22.78
2022-09-09T00:20:07.395Z,22.77
2022-09-09T00:22:33.841Z,22.76
2022-09-09T00:25:11.337Z,22.75
2022-09-09T00:27:47.832Z,22.74
2022-09-09T00:30:23.663Z,22.75
2022-09-09T00:32:55.339Z,22.82
2022-09-09T00:35:24.946Z,22.82
2022-09-09T00:37:52.946Z,22.76
2022-09-09T00:40:27.383Z,22.78
2022-09-09T00:43:03.152Z,22.79
2022-09-09T00:45:32.650Z,22.79
2022-09-09T00:48:03.128Z,22.77
2022-09-09T00:50:48.125Z,22.81
2022-09-09T00:53:30.977Z,22.83
2022-09-09T00:56:00.337Z,22.83
2022-09-09T00:58:28.507Z,22.79
2022-09-09T01:01:04.382Z,22.75
2022-09-09T01:03:36.846Z,22.71
2022-09-09T01:06:06.134Z,22.71
2022-09-09T01:08:35.851Z,22.72
2022-09-09T01:11:03.371Z,22.68
2022-09-09T01:13:31.493Z,22.66
2022-09-09T01:16:03.625Z,22.65
2022-09-09T01:18:35.564Z,22.62
2022-09-09T01:21:17.173Z,22.58
2022-09-09T01:24:02.748Z,22.54
2022-09-09T01:26:31.437Z,22.50
2022-09-09T01:28:57.946Z,22.48
2022-09-09T01:31:29.104Z,22.46
2022-09-09T01:33:55.737Z,22.44
2022-09-09T01:36:42.445Z,22.43
2022-09-09T01:39:09.136Z,22.39
2022-09-09T01:41:35.582Z,22.41
2022-09-09T01:44:02.149Z,22.44
2022-09-09T01:46:29.677Z,22.47
2022-09-09T01:48:57.271Z,22.48
2022-09-09T01:51:24.399Z,22.48
2022-09-09T01:53:50.947Z,22.51
2022-09-09T01:56:23.204Z,22.48
2022-09-09T01:59:08.392Z,22.45
2022-09-09T02:01:48.021Z,22.44
2022-09-09T02:04:23.339Z,22.40
2022-09-09T02:06:52.540Z,22.36
2022-09-09T02:09:20.174Z,22.34
2022-09-09T02:11:48.586Z,22.32
2022-09-09T02:14:19.005Z,22.31
2022-09-09T02:16:47.817Z,22.29
2022-09-09T02:19:18.100Z,22.25
2022-09-09T02:21:46.356Z,22.22
2022-09-09T02:24:15.121Z,22.22
2022-09-09T02:26:43.511Z,22.23
2022-09-09T02:29:14.471Z,22.23
2022-09-09T02:31:42.529Z,22.23
2022-09-09T02:34:28.684Z,22.23
2022-09-09T02:36:57.939Z,22.23
2022-09-09T02:39:24.425Z,22.21
2022-09-09T02:41:50.870Z,22.22
2022-09-09T02:44:18.981Z,22.21
2022-09-09T02:46:52.848Z,22.21
2022-09-09T02:49:37.882Z,22.22
2022-09-09T02:52:17.207Z,22.22
2022-09-09T02:54:44.583Z,22.22
2022-09-09T02:57:17.144Z,22.23
2022-09-09T02:59:44.310Z,22.26
2022-09-09T03:02:12.473Z,22.25
2022-09-09T03:04:39.505Z,22.24
2022-09-09T03:07:06.434Z,22.21
2022-09-09T03:09:36.175Z,22.19
2022-09-09T03:12:03.246Z,22.17
2022-09-09T03:14:29.693Z,22.15
2022-09-09T03:16:57.474Z,22.12
2022-09-09T03:19:24.040Z,22.11
2022-09-09T03:21:50.495Z,22.07
2022-09-09T03:24:16.948Z,22.04
2022-09-09T03:26:45.787Z,22.01
2022-09-09T03:29:15.787Z,22.01
2022-09-09T03:31:42.280Z,21.99
2022-09-09T03:34:08.861Z,21.95
2022-09-09T03:36:35.789Z,22.00
2022-09-09T03:39:03.944Z,21.97
2022-09-09T03:41:30.975Z,21.98
2022-09-09T03:43:57.652Z,21.95
2022-09-09T03:46:25.274Z,21.92
2022-09-09T03:48:53.347Z,21.88
2022-09-09T03:51:19.947Z,21.84
2022-09-09T03:53:46.490Z,21.76
2022-09-09T03:56:12.957Z,21.75
2022-09-09T03:58:39.464Z,21.68
2022-09-09T04:01:10.058Z,21.61
2022-09-09T04:03:43.416Z,21.53
2022-09-09T04:06:11.859Z,21.42
2022-09-09T04:08:39.570Z,21.23
2022-09-09T04:11:07.413Z,20.90
2022-09-09T04:13:35.193Z,20.53
2022-09-09T04:16:02.492Z,20.37
2022-09-09T04:18:31.980Z,20.21
2022-09-09T04:20:58.518Z,20.08
2022-09-09T04:23:26.363Z,20.04
2022-09-09T04:25:53.270Z,19.87
2022-09-09T04:28:20.864Z,19.80
2022-09-09T04:30:47.361Z,19.75
2022-09-09T04:33:14.365Z,19.69
2022-09-09T04:35:44.896Z,19.66
2022-09-09T04:38:11.377Z,19.62
2022-09-09T04:40:37.871Z,19.55
2022-09-09T04:43:08.291Z,19.54
2022-09-09T04:45:36.427Z,19.58
2022-09-09T04:48:03.734Z,19.53
2022-09-09T04:50:30.159Z,19.44
2022-09-09T04:52:56.608Z,19.46
2022-09-09T04:55:23.135Z,19.39
2022-09-09T04:57:49.551Z,19.40
2022-09-09T05:00:16.303Z,19.40
2022-09-09T05:02:43.876Z,19.46
2022-09-09T05:05:12.301Z,19.50
2022-09-09T05:07:38.812Z,19.55
2022-09-09T05:10:06.067Z,19.55
2022-09-09T05:12:32.956Z,19.55
2022-09-09T05:14:59.394Z,19.63
2022-09-09T05:17:25.895Z,19.57
2022-09-09T05:19:52.293Z,19.58
2022-09-09T05:22:22.865Z,19.60
2022-09-09T05:24:51.856Z,19.61
2022-09-09T05:27:20.404Z,19.64
2022-09-09T05:29:47.470Z,19.63
2022-09-09T05:32:16.102Z,19.70
2022-09-09T05:34:42.563Z,19.77
2022-09-09T05:37:08.994Z,19.87
2022-09-09T05:39:37.996Z,19.93
2022-09-09T05:42:05.446Z,19.97
2022-09-09T05:44:32.170Z,19.99
2022-09-09T05:46:59.069Z,20.05
2022-09-09T05:49:25.745Z,20.16
2022-09-09T05:51:52.503Z,20.21
2022-09-09T05:54:18.995Z,20.26
2022-09-09T05:56:49.835Z,20.26
2022-09-09T05:59:17.956Z,20.35
2022-09-09T06:01:45.265Z,20.32
2022-09-09T06:04:11.886Z,20.38
2022-09-09T06:06:40.891Z,20.36
2022-09-09T06:09:10.679Z,20.51
2022-09-09T06:11:38.200Z,20.61
2022-09-09T06:14:04.878Z,20.78
2022-09-09T06:16:33.712Z,20.90
2022-09-09T06:19:00.770Z,20.84
2022-09-09T06:21:38.030Z,20.99
2022-09-09T06:24:05.054Z,21.21
2022-09-09T06:26:32.972Z,21.24
2022-09-09T06:29:00.526Z,21.36
2022-09-09T06:31:31.511Z,21.41
2022-09-09T06:33:59.011Z,21.54
2022-09-09T06:36:26.651Z,21.69
2022-09-09T06:38:53.493Z,21.65
2022-09-09T06:41:21.139Z,21.75
2022-09-09T06:43:48.016Z,21.76
2022-09-09T06:46:19.891Z,21.80
2022-09-09T06:48:46.854Z,21.77
2022-09-09T06:51:14.589Z,21.64
2022-09-09T06:53:43.007Z,21.49
2022-09-09T06:56:17.341Z,21.40
2022-09-09T06:58:47.649Z,21.37
2022-09-09T07:01:15.289Z,21.17
2022-09-09T07:03:43.219Z,21.27
2022-09-09T07:06:15.840Z,21.19
2022-09-09T07:08:42.366Z,21.06
2022-09-09T07:11:12.400Z,20.96
2022-09-09T07:13:39.271Z,20.92
2022-09-09T07:16:10.416Z,20.81
2022-09-09T07:18:37.245Z,20.80
2022-09-09T07:21:04.282Z,20.77
2022-09-09T07:23:35.546Z,20.79
2022-09-09T07:26:04.007Z,20.79
2022-09-09T07:28:32.123Z,20.76
2022-09-09T07:30:59.849Z,20.61
2022-09-09T07:33:26.979Z,20.61
2022-09-09T07:35:53.855Z,20.67
2022-09-09T07:38:22.119Z,20.60
2022-09-09T07:40:48.739Z,20.61
2022-09-09T07:43:17.331Z,20.65
2022-09-09T07:45:44.062Z,20.61
2022-09-09T07:48:10.683Z,20.62
2022-09-09T07:50:37.371Z,20.63
2022-09-09T07:53:06.115Z,20.70
2022-09-09T07:55:32.670Z,20.76
2022-09-09T07:57:59.209Z,20.73
2022-09-09T08:00:25.958Z,20.73
2022-09-09T08:02:55.289Z,20.83
2022-09-09T08:05:23.388Z,20.91
2022-09-09T08:07:49.895Z,20.94
2022-09-09T08:10:17.082Z,20.98
2022-09-09T08:13:01.534Z,20.95
2022-09-09T08:15:31.610Z,21.01
2022-09-09T08:17:58.126Z,21.11
2022-09-09T08:20:24.722Z,21.19
2022-09-09T08:22:51.396Z,21.21
2022-09-09T08:25:17.983Z,21.43
2022-09-09T08:27:44.561Z,21.56
2022-09-09T08:30:13.832Z,21.71
2022-09-09T08:32:43.355Z,21.77
2022-09-09T08:35:12.341Z,21.72
2022-09-09T08:37:38.793Z,21.89
2022-09-09T08:40:05.559Z,22.08
2022-09-09T08:42:53.520Z,22.26
2022-09-09T08:45:25.902Z,23.07
2022-09-09T08:47:58.179Z,23.20
2022-09-09T08:50:25.747Z,23.25
2022-09-09T08:52:52.303Z,24.08
2022-09-09T08:55:18.729Z,23.59
2022-09-09T08:57:47.021Z,23.95
2022-09-09T09:00:13.650Z,24.11
2022-09-09T09:03:03.529Z,24.96
2022-09-09T09:05:34.152Z,25.69
2022-09-09T09:08:00.874Z,26.09
2022-09-09T09:10:42.306Z,26.33
2022-09-09T09:13:22.184Z,27.06
2022-09-09T09:15:53.182Z,27.26
2022-09-09T09:18:19.663Z,27.98
2022-09-09T09:20:50.309Z,27.56
2022-09-09T09:23:21.995Z,26.18
2022-09-09T09:25:48.699Z,26.82
2022-09-09T09:28:18.826Z,27.27
2022-09-09T09:30:48.743Z,27.43
2022-09-09T09:33:27.816Z,27.33
2022-09-09T09:35:54.713Z,27.59
2022-09-09T09:41:10.552Z,28.81
2022-09-09T09:43:38.219Z,28.49
2022-09-09T09:46:17.569Z,27.94
2022-09-09T09:48:46.635Z,28.48
2022-09-09T09:51:17.051Z,28.51
2022-09-09T09:53:43.937Z,28.50
2022-09-09T09:56:11.567Z,27.78
2022-09-09T09:58:47.242Z,28.36
2022-09-09T10:01:28.858Z,29.21
2022-09-09T10:03:58.154Z,29.37
2022-09-09T10:06:32.507Z,29.41
2022-09-09T10:08:58.974Z,29.43
2022-09-09T10:11:36.618Z,29.64
2022-09-09T10:14:16.136Z,29.05
2022-09-09T10:16:53.375Z,29.60
2022-09-09T10:19:40.398Z,30.27
2022-09-09T10:22:25.476Z,30.86
2022-09-09T10:25:11.303Z,31.19
2022-09-09T10:27:59.755Z,30.75
2022-09-09T10:30:53.706Z,30.59
2022-09-09T10:33:32.658Z,30.85
2022-09-09T10:36:02.616Z,31.13
2022-09-09T10:38:49.397Z,31.38
2022-09-09T10:41:15.840Z,32.14
2022-09-09T10:44:06.188Z,30.51
2022-09-09T10:46:47.323Z,31.37
2022-09-09T10:49:32.677Z,31.92
2022-09-09T10:52:19.662Z,32.47
2022-09-09T10:55:21.427Z,32.75
2022-09-09T10:57:53.231Z,32.79
2022-09-09T11:00:21.604Z,32.19
2022-09-09T11:03:07.786Z,32.58
2022-09-09T11:05:45.877Z,32.52
2022-09-09T11:08:15.443Z,32.69
2022-09-09T11:10:41.974Z,32.11
2022-09-09T11:13:16.869Z,32.53
2022-09-09T11:15:46.396Z,31.77
2022-09-09T11:18:17.105Z,30.94
2022-09-09T11:20:45.454Z,31.05
2022-09-09T11:23:18.149Z,31.51
2022-09-09T11:25:48.254Z,32.69
2022-09-09T11:28:16.536Z,33.47
2022-09-09T11:31:04.386Z,33.66
2022-09-09T11:33:40.075Z,33.93
2022-09-09T11:36:25.905Z,33.80
2022-09-09T11:38:53.148Z,33.71
2022-09-09T11:41:22.219Z,33.93
2022-09-09T11:43:52.318Z,33.57
2022-09-09T11:46:20.312Z,33.59
2022-09-09T11:48:58.159Z,33.28
2022-09-09T11:51:24.741Z,33.20
2022-09-09T11:53:55.804Z,33.09
2022-09-09T11:56:25.055Z,32.47
2022-09-09T11:58:56.298Z,32.69
2022-09-09T12:01:49.779Z,33.31
2022-09-09T12:04:37.747Z,32.39
2022-09-09T12:07:04.319Z,33.36
2022-09-09T12:09:49.562Z,32.65
2022-09-09T12:12:16.074Z,32.58
2022-09-09T12:14:42.550Z,33.03
2022-09-09T12:17:23.679Z,33.83
2022-09-09T12:20:06.230Z,33.88
2022-09-09T12:22:41.568Z,34.04
2022-09-09T12:25:14.560Z,32.49
2022-09-09T12:27:47.144Z,32.05
2022-09-09T12:30:16.273Z,31.74
2022-09-09T12:32:45.359Z,33.00
2022-09-09T12:35:11.881Z,33.80
2022-09-09T12:37:39.837Z,33.27
2022-09-09T12:40:25.119Z,33.07
2022-09-09T12:42:51.786Z,34.01
2022-09-09T12:45:20.256Z,34.34
2022-09-09T12:48:01.609Z,34.26
2022-09-09T12:50:41.532Z,34.55
2022-09-09T12:53:11.148Z,35.05
2022-09-09T12:55:39.083Z,35.10
2022-09-09T12:58:07.147Z,35.56
2022-09-09T13:00:34.957Z,36.14
2022-09-09T13:03:02.708Z,36.67
2022-09-09T13:05:35.163Z,36.77
2022-09-09T13:08:03.428Z,36.56
2022-09-09T13:10:36.599Z,36.66
2022-09-09T13:13:17.183Z,37.02
2022-09-09T13:15:50.310Z,36.43
2022-09-09T13:18:17.603Z,36.62
2022-09-09T13:20:48.574Z,36.56
2022-09-09T13:23:16.330Z,36.61
2022-09-09T13:25:54.355Z,37.02
2022-09-09T13:28:25.874Z,36.58
2022-09-09T13:31:03.602Z,36.94
2022-09-09T13:33:35.119Z,36.60
2022-09-09T13:36:06.420Z,36.21
2022-09-09T13:38:53.209Z,36.60
2022-09-09T13:41:24.722Z,36.40
2022-09-09T13:43:52.217Z,35.32
2022-09-09T13:46:31.379Z,34.74
2022-09-09T13:48:59.249Z,35.43
2022-09-09T13:51:31.888Z,34.41
2022-09-09T13:53:59.141Z,34.33
2022-09-09T13:56:25.583Z,34.25
2022-09-09T13:58:52.013Z,34.66
2022-09-09T14:01:18.553Z,34.52
2022-09-09T14:03:45.008Z,35.02
2022-09-09T14:06:12.134Z,35.19
2022-09-09T14:08:39.712Z,34.51
2022-09-09T14:11:06.224Z,34.33
2022-09-09T14:13:33.398Z,33.36
2022-09-09T14:15:59.954Z,33.46
2022-09-09T14:18:26.550Z,33.99
2022-09-09T14:20:52.992Z,32.49
2022-09-09T14:23:19.906Z,32.06
2022-09-09T14:25:47.515Z,33.22
2022-09-09T14:28:14.545Z,33.93
2022-09-09T14:30:42.253Z,33.78
2022-09-09T14:33:10.396Z,33.66
2022-09-09T14:35:37.303Z,32.47
2022-09-09T14:38:05.001Z,33.44
2022-09-09T14:40:31.843Z,34.27
2022-09-09T14:42:59.444Z,33.81
2022-09-09T14:45:25.913Z,32.52
2022-09-09T14:47:52.680Z,32.70
2022-09-09T14:50:20.254Z,33.04
2022-09-09T14:52:46.886Z,33.77
2022-09-09T14:55:13.834Z,33.83
2022-09-09T14:57:41.275Z,33.35
2022-09-09T15:00:09.042Z,33.50
2022-09-09T15:02:35.556Z,33.71
2022-09-09T15:05:02.501Z,33.37
2022-09-09T15:07:29.360Z,32.57
2022-09-09T15:09:56.146Z,32.26
2022-09-09T15:12:22.665Z,32.52
2022-09-09T15:14:49.391Z,32.88
2022-09-09T15:17:15.823Z,33.25
2022-09-09T15:19:43.128Z,33.08
2022-09-09T15:22:09.713Z,32.65
2022-09-09T15:24:36.225Z,33.36
2022-09-09T15:27:03.390Z,33.14
2022-09-09T15:29:29.800Z,33.67
2022-09-09T15:31:56.539Z,33.02
2022-09-09T15:34:23.299Z,32.93
2022-09-09T15:36:50.069Z,33.43
2022-09-09T15:39:17.607Z,33.81
2022-09-09T15:41:45.062Z,33.37
2022-09-09T15:44:13.305Z,32.86
2022-09-09T15:46:44.484Z,32.17
2022-09-09T15:49:15.329Z,32.82
2022-09-09T15:51:44.505Z,33.37
2022-09-09T15:54:13.311Z,33.55
2022-09-09T15:56:40.158Z,33.64
2022-09-09T15:59:06.701Z,34.25
2022-09-09T16:01:33.543Z,34.07
2022-09-09T16:04:01.096Z,33.99
2022-09-09T16:06:42.767Z,33.85
2022-09-09T16:09:09.431Z,33.95
2022-09-09T16:11:37.704Z,33.56
2022-09-09T16:14:04.928Z,33.28
2022-09-09T16:16:32.138Z,33.10
2022-09-09T16:18:59.768Z,32.45
2022-09-09T16:21:30.474Z,31.27
2022-09-09T16:23:57.755Z,30.47
2022-09-09T16:26:24.221Z,29.89
2022-09-09T16:28:50.727Z,29.41
2022-09-09T16:31:20.881Z,29.04
2022-09-09T16:33:48.517Z,28.68
2022-09-09T16:36:16.258Z,28.47
2022-09-09T16:38:43.691Z,28.35
2022-09-09T16:41:10.763Z,28.15
2022-09-09T16:43:38.050Z,27.97
2022-09-09T16:46:12.148Z,27.74
2022-09-09T16:48:38.901Z,27.53
2022-09-09T16:51:06.546Z,27.39
2022-09-09T16:53:33.352Z,27.26
2022-09-09T16:56:05.775Z,27.08
2022-09-09T16:58:32.283Z,26.97
2022-09-09T17:00:59.670Z,26.87
2022-09-09T17:03:26.197Z,26.70
2022-09-09T17:05:52.801Z,26.56
2022-09-09T17:08:19.250Z,26.49
2022-09-09T17:10:46.715Z,26.34
2022-09-09T17:13:14.207Z,26.22
2022-09-09T17:15:43.862Z,26.14
2022-09-09T17:18:11.081Z,26.07
2022-09-09T17:20:46.334Z,26.03
2022-09-09T17:23:16.310Z,25.96
2022-09-09T17:25:42.891Z,25.91
2022-09-09T17:28:09.362Z,25.89
2022-09-09T17:30:37.553Z,25.77
2022-09-09T17:33:04.640Z,25.67
2022-09-09T17:35:32.239Z,25.60
2022-09-09T17:37:59.084Z,25.58
2022-09-09T17:40:25.633Z,25.51
2022-09-09T17:42:52.278Z,25.47
2022-09-09T17:45:19.014Z,25.41
2022-09-09T17:47:45.657Z,25.38
2022-09-09T17:50:13.794Z,25.33
2022-09-09T17:52:41.652Z,25.28
2022-09-09T17:55:10.110Z,25.23
2022-09-09T17:57:36.555Z,25.21
2022-09-09T18:00:04.245Z,25.18
2022-09-09T18:02:30.720Z,25.16
2022-09-09T18:04:57.515Z,25.13
2022-09-09T18:07:24.822Z,25.05
2022-09-09T18:09:51.267Z,25.01
2022-09-09T18:12:18.098Z,25.00
2022-09-09T18:14:44.515Z,24.96
2022-09-09T18:17:11.170Z,24.90
2022-09-09T18:19:37.653Z,24.86
2022-09-09T18:22:05.359Z,24.81
2022-09-09T18:24:31.949Z,24.79
2022-09-09T18:26:58.807Z,24.76
2022-09-09T18:29:25.572Z,24.72
2022-09-09T18:31:54.994Z,24.71
2022-09-09T18:34:22.727Z,24.69
2022-09-09T18:36:54.608Z,24.69
2022-09-09T18:39:22.380Z,24.66
2022-09-09T18:41:51.686Z,24.65
2022-09-09T18:44:19.743Z,24.63
2022-09-09T18:46:46.683Z,24.61
2022-09-09T18:49:15.143Z,24.61
2022-09-09T18:51:42.896Z,24.57
2022-09-09T18:54:17.310Z,24.56
2022-09-09T18:56:44.238Z,24.49
2022-09-09T18:59:12.742Z,24.43
2022-09-09T19:01:39.387Z,24.35
2022-09-09T19:04:06.779Z,24.23
2022-09-09T19:06:34.012Z,24.13
2022-09-09T19:09:03.710Z,24.03
2022-09-09T19:11:31.354Z,23.91
2022-09-09T19:13:59.321Z,23.81
2022-09-09T19:16:29.122Z,23.72
2022-09-09T19:18:57.873Z,23.63
2022-09-09T19:21:26.036Z,23.56
2022-09-09T19:24:04.210Z,23.48
2022-09-09T19:26:32.245Z,23.41
2022-09-09T19:28:59.752Z,23.32
2022-09-09T19:31:28.009Z,23.23
2022-09-09T19:33:55.740Z,23.17
2022-09-09T19:36:23.403Z,23.08
2022-09-09T19:38:50.086Z,22.99
2022-09-09T19:41:21.444Z,22.90
2022-09-09T19:43:48.419Z,22.84
2022-09-09T19:46:16.333Z,22.74
2022-09-09T19:48:42.946Z,22.69
2022-09-09T19:51:11.029Z,22.62
2022-09-09T19:53:39.131Z,22.53
2022-09-09T19:56:05.710Z,22.48
2022-09-09T19:58:34.429Z,22.46
2022-09-09T20:01:06.968Z,22.39
2022-09-09T20:03:35.045Z,22.34
2022-09-09T20:06:01.481Z,22.29
2022-09-09T20:08:27.951Z,22.24
2022-09-09T20:10:54.488Z,22.23
2022-09-09T20:13:20.985Z,22.17
2022-09-09T20:15:56.733Z,22.15
2022-09-09T20:18:23.212Z,22.14
2022-09-09T20:20:50.632Z,22.17
2022-09-09T20:23:18.694Z,22.16
2022-09-09T20:25:45.399Z,22.15
2022-09-09T20:28:11.847Z,22.11
2022-09-09T20:30:38.654Z,22.13
2022-09-09T20:33:05.123Z,22.14
2022-09-09T20:35:33.174Z,22.14
2022-09-09T20:38:00.903Z,22.12
2022-09-09T20:40:30.383Z,22.14
2022-09-09T20:42:59.706Z,22.13
2022-09-09T20:45:26.159Z,22.06
2022-09-09T20:47:52.668Z,22.01
2022-09-09T20:50:19.102Z,21.97
2022-09-09T20:52:45.638Z,21.90
2022-09-09T20:55:12.081Z,21.81
2022-09-09T20:57:38.739Z,21.71
2022-09-09T21:00:07.685Z,21.65
2022-09-09T21:02:34.234Z,21.56
2022-09-09T21:05:01.597Z,21.57
2022-09-09T21:07:29.139Z,21.55
2022-09-09T21:09:58.340Z,21.55
2022-09-09T21:12:24.793Z,21.54
2022-09-09T21:14:51.736Z,21.53
2022-09-09T21:17:18.675Z,21.50
2022-09-09T21:19:45.346Z,21.45
2022-09-09T21:22:14.179Z,21.37
2022-09-09T21:24:40.928Z,21.39
2022-09-09T21:27:07.404Z,21.36
2022-09-09T21:29:33.909Z,21.31
2022-09-09T21:32:01.243Z,21.31
2022-09-09T21:34:27.740Z,21.29
2022-09-09T21:36:54.179Z,21.28
2022-09-09T21:39:20.677Z,21.22
2022-09-09T21:41:47.781Z,21.18
2022-09-09T21:44:14.513Z,21.15
2022-09-09T21:46:43.423Z,21.11
2022-09-09T21:49:09.964Z,21.06
2022-09-09T21:51:36.473Z,20.99
2022-09-09T21:54:02.916Z,20.95
2022-09-09T21:56:29.601Z,20.94
2022-09-09T21:58:57.648Z,20.90
2022-09-09T22:01:24.928Z,20.83
2022-09-09T22:03:51.656Z,20.82
2022-09-09T22:06:18.631Z,20.78
2022-09-09T22:08:46.053Z,20.77
2022-09-09T22:11:17.059Z,20.75
2022-09-09T22:13:45.998Z,20.70
2022-09-09T22:16:14.053Z,20.69
2022-09-09T22:18:40.763Z,20.67
2022-09-09T22:21:08.330Z,20.64
2022-09-09T22:23:36.485Z,20.62
2022-09-09T22:26:03.443Z,20.55
2022-09-09T22:28:30.718Z,20.55
2022-09-09T22:30:57.260Z,20.53
2022-09-09T22:33:24.294Z,20.51
2022-09-09T22:35:50.787Z,20.52
2022-09-09T22:38:17.328Z,20.52
2022-09-09T22:40:43.819Z,20.53
2022-09-09T22:43:13.795Z,20.49
2022-09-09T22:45:40.308Z,20.48
2022-09-09T22:48:06.804Z,20.46
2022-09-09T22:50:45.769Z,20.43
2022-09-09T22:53:15.779Z,20.39
2022-09-09T22:55:42.316Z,20.35
2022-09-09T22:58:09.485Z,20.35
2022-09-09T23:00:35.923Z,20.34
2022-09-09T23:03:02.961Z,20.28
2022-09-09T23:05:30.223Z,20.25
2022-09-09T23:07:59.627Z,20.27
2022-09-09T23:10:27.247Z,20.25
2022-09-09T23:12:54.246Z,20.26
2022-09-09T23:15:20.768Z,20.27
2022-09-09T23:17:47.192Z,20.25
2022-09-09T23:20:13.656Z,20.24
2022-09-09T23:22:40.598Z,20.22
2022-09-09T23:25:07.414Z,20.22
2022-09-09T23:27:34.790Z,20.25
2022-09-09T23:30:01.622Z,20.24
2022-09-09T23:32:28.142Z,20.23
2022-09-09T23:34:54.836Z,20.24
2022-09-09T23:37:21.293Z,20.26
2022-09-09T23:39:48.065Z,20.24
2022-09-09T23:42:14.591Z,20.24
2022-09-09T23:44:41.045Z,20.24
2022-09-09T23:47:09.365Z,20.27
2022-09-09T23:49:37.269Z,20.29
2022-09-09T23:52:05.437Z,20.29
2022-09-09T23:54:32.153Z,20.29
2022-09-09T23:56:58.584Z,20.32
2022-09-09T23:59:25.072Z,20.35
